createdAt,value
2022-11-05T03:33:06.241Z,8.89
2022-11-05T03:35:53.990Z,8.84
2022-11-05T03:38:36.549Z,8.79
2022-11-05T03:41:20.924Z,8.71
2022-11-05T03:44:18.602Z,8.76
2022-11-05T03:47:00.797Z,8.75
2022-11-05T03:49:58.012Z,8.68
2022-11-05T03:52:38.894Z,8.64
2022-11-05T03:55:13.981Z,8.71
2022-11-05T03:57:50.067Z,8.77
2022-11-05T04:00:28.083Z,8.79
2022-11-05T04:03:10.295Z,8.74
2022-11-05T04:05:40.785Z,8.73
2022-11-05T04:08:27.983Z,8.65
2022-11-05T04:11:17.315Z,8.69
2022-11-05T04:13:50.039Z,8.61
2022-11-05T04:16:38.532Z,8.62
2022-11-05T04:19:38.466Z,8.56
2022-11-05T04:22:46.963Z,8.54
2022-11-05T04:25:27.885Z,8.59
2022-11-05T04:28:18.038Z,8.58
2022-11-05T04:31:02.902Z,8.61
2022-11-05T04:33:49.839Z,8.62
2022-11-05T04:36:25.799Z,8.48
2022-11-05T04:39:02.871Z,8.51
2022-11-05T04:41:56.020Z,8.45
2022-11-05T04:44:37.842Z,8.44
2022-11-05T04:47:13.185Z,8.50
2022-11-05T04:49:51.504Z,8.44
2022-11-05T04:52:44.409Z,8.41
2022-11-05T04:55:31.913Z,8.43
2022-11-05T04:58:14.202Z,8.41
2022-11-05T05:00:52.378Z,8.57
2022-11-05T05:03:27.891Z,8.57
2022-11-05T05:06:24.210Z,8.52
2022-11-05T05:09:17.477Z,8.64
2022-11-05T05:12:01.354Z,8.56
2022-11-05T05:14:42.081Z,8.60
2022-11-05T05:17:23.063Z,8.51
2022-11-05T05:20:31.279Z,8.52
2022-11-05T05:23:06.212Z,8.28
2022-11-05T05:25:53.402Z,8.57
2022-11-05T05:28:47.360Z,8.44
2022-11-05T05:31:28.416Z,8.50
2022-11-05T05:34:19.962Z,8.40
2022-11-05T05:37:04.528Z,8.38
2022-11-05T05:39:36.656Z,8.25
2022-11-05T05:42:17.889Z,8.12
2022-11-05T05:44:59.178Z,8.42
2022-11-05T05:47:39.858Z,8.33
2022-11-05T05:50:12.430Z,8.41
2022-11-05T05:52:53.904Z,8.38
2022-11-05T05:55:37.502Z,8.34
2022-11-05T05:58:15.888Z,8.27
2022-11-05T06:01:18.339Z,8.33
2022-11-05T06:03:51.606Z,8.29
2022-11-05T06:06:22.817Z,8.18
2022-11-05T06:09:02.801Z,8.25
2022-11-05T06:11:42.869Z,8.28
2022-11-05T06:14:18.755Z,8.30
2022-11-05T06:17:05.426Z,8.15
2022-11-05T06:19:49.685Z,8.35
2022-11-05T06:22:32.293Z,8.33
2022-11-05T06:25:21.384Z,8.34
2022-11-05T06:28:02.004Z,8.31
2022-11-05T06:30:45.884Z,8.29
2022-11-05T06:33:21.029Z,8.26
2022-11-05T06:35:52.547Z,8.27
2022-11-05T06:38:41.892Z,8.23
2022-11-05T06:41:22.035Z,7.93
2022-11-05T06:43:59.591Z,8.15
2022-11-05T06:46:34.759Z,7.89
2022-11-05T06:49:15.365Z,8.10
2022-11-05T06:51:48.788Z,8.01
2022-11-05T06:54:21.647Z,8.08
2022-11-05T06:56:53.833Z,7.77
2022-11-05T06:59:43.811Z,8.18
2022-11-05T07:02:18.818Z,8.14
2022-11-05T07:04:53.031Z,8.25
2022-11-05T07:07:25.724Z,8.21
2022-11-05T07:09:55.952Z,8.25
2022-11-05T07:12:28.719Z,8.29
2022-11-05T07:15:07.876Z,8.30
2022-11-05T07:18:02.497Z,8.26
2022-11-05T07:20:45.629Z,8.24
2022-11-05T07:23:24.780Z,8.16
2022-11-05T07:25:57.310Z,8.28
2022-11-05T07:28:32.302Z,8.32
2022-11-05T07:31:22.279Z,8.35
2022-11-05T07:34:04.198Z,8.27
2022-11-05T07:36:44.963Z,8.33
2022-11-05T07:39:24.549Z,8.40
2022-11-05T07:42:26.623Z,8.14
2022-11-05T07:45:10.471Z,8.38
2022-11-05T07:48:04.374Z,8.48
2022-11-05T07:50:45.501Z,8.47
2022-11-05T07:53:35.564Z,8.48
2022-11-05T07:56:13.246Z,8.49
2022-11-05T07:58:57.552Z,8.50
2022-11-05T08:01:41.370Z,8.58
2022-11-05T08:04:34.757Z,8.64
2022-11-05T08:07:36.152Z,8.72
2022-11-05T08:10:19.960Z,8.73
2022-11-05T08:13:13.410Z,8.67
2022-11-05T08:16:00.943Z,8.73
2022-11-05T08:18:33.492Z,8.72
2022-11-05T08:21:11.358Z,8.78
2022-11-05T08:23:58.628Z,8.82
2022-11-05T08:26:52.630Z,8.78
2022-11-05T08:29:37.730Z,8.81
2022-11-05T08:32:13.464Z,8.89
2022-11-05T08:35:08.884Z,8.76
2022-11-05T08:38:04.738Z,8.76
2022-11-05T08:40:54.534Z,8.77
2022-11-05T08:43:40.130Z,8.63
2022-11-05T08:46:22.928Z,8.81
2022-11-05T08:49:03.983Z,8.78
2022-11-05T08:51:56.979Z,8.95
2022-11-05T08:54:44.747Z,9.04
2022-11-05T08:57:20.718Z,9.02
2022-11-05T08:59:56.213Z,9.13
2022-11-05T09:02:51.726Z,9.25
2022-11-05T09:05:29.227Z,9.28
2022-11-05T09:08:18.252Z,9.52
2022-11-05T09:11:12.615Z,9.77
2022-11-05T09:13:57.349Z,10.06
2022-11-05T09:16:38.429Z,10.02
2022-11-05T09:19:37.965Z,10.20
2022-11-05T09:22:30.455Z,10.25
2022-11-05T09:25:11.120Z,10.13
2022-11-05T09:28:06.759Z,10.48
2022-11-05T09:30:47.779Z,10.32
2022-11-05T09:33:44.122Z,10.19
2022-11-05T09:36:25.322Z,10.23
2022-11-05T09:39:05.791Z,10.63
2022-11-05T09:41:51.880Z,11.12
2022-11-05T09:44:35.687Z,11.41
2022-11-05T09:47:19.711Z,11.58
2022-11-05T09:50:13.563Z,11.84
2022-11-05T09:52:54.633Z,12.04
2022-11-05T09:55:31.585Z,12.09
2022-11-05T09:58:16.436Z,12.45
2022-11-05T10:00:55.778Z,12.36
2022-11-05T10:03:41.472Z,12.55
2022-11-05T10:06:23.708Z,12.75
2022-11-05T10:09:05.824Z,13.15
2022-11-05T10:11:51.382Z,13.07
2022-11-05T10:14:42.150Z,13.63
2022-11-05T10:17:45.041Z,13.08
2022-11-05T10:20:33.852Z,13.62
2022-11-05T10:23:23.937Z,13.96
2022-11-05T10:26:17.465Z,12.59
2022-11-05T10:28:59.731Z,13.45
2022-11-05T10:31:46.206Z,13.70
2022-11-05T10:34:18.649Z,14.03
2022-11-05T10:37:09.444Z,14.35
2022-11-05T10:39:47.028Z,14.63
2022-11-05T10:42:55.612Z,14.79
2022-11-05T10:45:49.893Z,14.80
2022-11-05T10:48:53.098Z,14.95
2022-11-05T10:51:26.144Z,13.93
2022-11-05T10:54:14.435Z,13.41
2022-11-05T10:57:12.920Z,14.39
2022-11-05T10:59:57.314Z,14.41
2022-11-05T11:02:46.110Z,13.75
2022-11-05T11:05:42.554Z,13.69
2022-11-05T11:08:24.423Z,13.09
2022-11-05T11:11:14.493Z,13.53
2022-11-05T11:14:04.722Z,14.17
2022-11-05T11:16:48.607Z,13.90
2022-11-05T11:19:26.706Z,14.09
2022-11-05T11:22:05.641Z,14.28
2022-11-05T11:24:53.988Z,14.91
2022-11-05T11:27:39.477Z,15.52
2022-11-05T11:30:33.919Z,14.30
2022-11-05T11:33:27.302Z,14.72
2022-11-05T11:36:02.836Z,14.88
2022-11-05T11:38:45.379Z,14.95
2022-11-05T11:41:43.658Z,15.41
2022-11-05T11:44:38.805Z,15.73
2022-11-05T11:47:20.836Z,16.21
2022-11-05T11:50:28.012Z,16.13
2022-11-05T11:53:20.488Z,15.47
2022-11-05T11:56:12.685Z,15.10
2022-11-05T11:58:50.335Z,13.56
2022-11-05T12:01:42.509Z,13.79
2022-11-05T12:04:34.240Z,13.89
2022-11-05T12:07:43.180Z,13.02
2022-11-05T12:10:36.457Z,13.22
2022-11-05T12:13:21.324Z,13.66
2022-11-05T12:15:56.202Z,13.81
2022-11-05T12:19:04.075Z,13.70
2022-11-05T12:21:57.319Z,11.78
2022-11-05T12:24:52.171Z,13.00
2022-11-05T12:27:41.851Z,13.36
2022-11-05T12:30:30.293Z,13.16
2022-11-05T12:33:20.798Z,12.98
2022-11-05T12:36:04.583Z,12.96
2022-11-05T12:38:55.985Z,12.91
2022-11-05T12:41:55.906Z,12.86
2022-11-05T12:44:54.369Z,12.77
2022-11-05T12:47:47.378Z,12.75
2022-11-05T12:50:22.532Z,12.75
2022-11-05T12:53:34.895Z,12.87
2022-11-05T12:56:20.120Z,12.69
2022-11-05T12:59:02.398Z,12.79
2022-11-05T13:01:56.940Z,12.93
2022-11-05T13:05:15.658Z,13.12
2022-11-05T13:08:05.568Z,13.42
2022-11-05T13:10:45.823Z,13.07
2022-11-05T13:13:38.814Z,13.03
2022-11-05T13:16:31.512Z,13.03
2022-11-05T13:19:14.107Z,13.29
2022-11-05T13:21:44.618Z,13.11
2022-11-05T13:24:48.813Z,13.04
2022-11-05T13:27:43.139Z,12.73
2022-11-05T13:30:20.918Z,12.96
2022-11-05T13:32:56.079Z,12.80
2022-11-05T13:35:29.318Z,13.09
2022-11-05T13:38:23.251Z,12.88
2022-11-05T13:41:04.986Z,12.82
2022-11-05T13:43:57.748Z,12.72
2022-11-05T13:46:33.745Z,12.31
2022-11-05T13:49:43.246Z,12.42
2022-11-05T13:52:31.268Z,12.45
2022-11-05T13:55:25.426Z,12.14
2022-11-05T13:58:04.395Z,12.33
2022-11-05T14:00:45.331Z,12.36
2022-11-05T14:03:23.636Z,12.28
2022-11-05T14:06:18.308Z,11.65
2022-11-05T14:08:49.160Z,11.75
2022-11-05T14:11:30.556Z,11.94
2022-11-05T14:14:06.116Z,12.07
2022-11-05T14:16:53.133Z,12.01
2022-11-05T14:19:34.147Z,11.70
2022-11-05T14:22:33.304Z,11.45
2022-11-05T14:25:29.384Z,11.12
2022-11-05T14:28:06.888Z,11.06
2022-11-05T14:30:54.024Z,11.24
2022-11-05T14:33:36.429Z,11.38
2022-11-05T14:36:21.225Z,11.33
2022-11-05T14:39:15.606Z,11.59
2022-11-05T14:42:06.362Z,11.36
2022-11-05T14:44:58.917Z,11.43
2022-11-05T14:47:42.354Z,11.20
2022-11-05T14:50:20.079Z,11.05
2022-11-05T14:53:04.834Z,11.12
2022-11-05T14:55:44.538Z,11.23
2022-11-05T14:58:33.416Z,11.27
2022-11-05T15:01:07.393Z,11.00
2022-11-05T15:03:49.317Z,11.06
2022-11-05T15:06:33.127Z,11.17
2022-11-05T15:09:23.443Z,10.83
2022-11-05T15:11:59.225Z,10.94
2022-11-05T15:15:04.459Z,10.83
2022-11-05T15:18:05.318Z,10.69
2022-11-05T15:20:42.407Z,10.45
2022-11-05T15:23:16.274Z,10.43
2022-11-05T15:26:05.914Z,10.57
2022-11-05T15:28:59.229Z,10.42
2022-11-05T15:31:41.596Z,10.41
2022-11-05T15:34:29.834Z,10.38
2022-11-05T15:37:23.920Z,10.28
2022-11-05T15:39:58.055Z,10.21
2022-11-05T15:42:31.560Z,10.23
2022-11-05T15:45:03.905Z,10.17
2022-11-05T15:47:48.835Z,10.10
2022-11-05T15:50:39.592Z,10.00
2022-11-05T15:54:01.761Z,9.81
2022-11-05T15:56:38.305Z,9.94
2022-11-05T15:59:20.436Z,9.95
2022-11-05T16:02:02.132Z,9.85
2022-11-05T16:04:34.742Z,9.79
2022-11-05T16:07:17.520Z,9.72
2022-11-05T16:10:01.496Z,9.59
2022-11-05T16:12:39.157Z,9.43
2022-11-05T16:15:24.406Z,9.44
2022-11-05T16:18:00.629Z,9.39
2022-11-05T16:20:59.416Z,9.16
2022-11-05T16:23:44.641Z,9.12
2022-11-05T16:29:37.324Z,9.03
2022-11-05T16:32:26.910Z,8.89
2022-11-05T16:35:08.522Z,8.69
2022-11-05T16:37:52.062Z,8.69
2022-11-05T16:44:40.638Z,8.79
2022-11-05T16:56:45.348Z,8.33
2022-11-05T16:59:23.479Z,8.29
2022-11-05T17:01:56.179Z,8.30
2022-11-05T17:04:31.415Z,8.18
2022-11-05T17:07:09.653Z,8.37
2022-11-05T17:09:39.585Z,8.42
2022-11-05T17:12:15.243Z,8.53
2022-11-05T17:14:50.237Z,8.06
2022-11-05T17:17:20.060Z,8.15
2022-11-05T17:19:53.417Z,8.33
2022-11-05T17:22:28.283Z,8.30
2022-11-05T17:25:00.718Z,8.12
2022-11-05T17:27:30.561Z,8.14
2022-11-05T17:29:59.940Z,8.01
2022-11-05T17:32:40.038Z,8.04
2022-11-05T17:35:19.279Z,7.91
2022-11-05T17:37:59.184Z,7.94
2022-11-05T17:40:36.915Z,8.07
2022-11-05T17:43:10.624Z,8.16
2022-11-05T17:45:58.627Z,8.17
2022-11-05T17:48:34.119Z,8.12
2022-11-05T17:51:12.346Z,8.05
2022-11-05T17:53:39.763Z,7.91
2022-11-05T17:56:24.538Z,8.07
2022-11-05T17:59:08.035Z,7.99
2022-11-05T18:01:49.000Z,7.60
2022-11-05T18:04:27.384Z,7.33
2022-11-05T18:06:59.559Z,7.39
2022-11-05T18:09:33.100Z,7.36
2022-11-05T18:12:05.408Z,7.40
2022-11-05T18:14:37.430Z,7.27
2022-11-05T18:17:10.398Z,7.39
2022-11-05T18:19:45.068Z,7.51
2022-11-05T18:22:20.399Z,7.52
2022-11-05T18:24:54.341Z,7.34
2022-11-05T18:27:28.845Z,7.35
2022-11-05T18:30:01.426Z,7.34
2022-11-05T18:32:34.097Z,7.42
2022-11-05T18:35:13.576Z,7.49
2022-11-05T18:37:45.595Z,7.37
2022-11-05T18:40:28.754Z,7.27
2022-11-05T18:42:55.664Z,7.22
2022-11-05T18:45:33.451Z,6.97
2022-11-05T18:48:06.082Z,7.02
2022-11-05T18:50:42.568Z,7.06
2022-11-05T18:53:20.408Z,6.90
2022-11-05T18:55:54.870Z,6.67
2022-11-05T18:58:32.520Z,6.76
2022-11-05T19:01:06.759Z,6.78
2022-11-05T19:03:42.202Z,6.75
2022-11-05T19:06:12.482Z,6.75
2022-11-05T19:08:42.818Z,6.90
2022-11-05T19:11:22.830Z,7.07
2022-11-05T19:13:52.910Z,7.14
2022-11-05T19:16:27.283Z,7.23
2022-11-05T19:19:11.781Z,7.08
2022-11-05T19:21:46.857Z,7.12
2022-11-05T19:24:27.627Z,7.05
2022-11-05T19:27:08.045Z,6.96
2022-11-05T19:29:34.940Z,6.89
2022-11-05T19:32:13.578Z,6.83
2022-11-05T19:34:55.285Z,6.78
2022-11-05T19:37:30.331Z,6.80
2022-11-05T19:40:05.633Z,6.66
2022-11-05T19:42:38.622Z,6.56
2022-11-05T19:45:38.333Z,6.58
2022-11-05T19:48:06.340Z,6.49
2022-11-05T19:50:36.250Z,6.44
2022-11-05T19:53:06.207Z,6.42
2022-11-05T19:55:44.347Z,6.47
2022-11-05T19:58:19.867Z,6.28
2022-11-05T20:00:58.132Z,6.35
2022-11-05T20:03:37.749Z,6.36
2022-11-05T20:06:15.205Z,6.31
2022-11-05T20:09:20.436Z,6.14
2022-11-05T20:11:47.800Z,6.21
2022-11-05T20:14:20.617Z,6.22
2022-11-05T20:16:56.715Z,6.22
2022-11-05T20:19:35.245Z,6.26
2022-11-05T20:22:04.764Z,6.09
2022-11-05T20:24:51.624Z,6.06
2022-11-05T20:27:27.246Z,6.12
2022-11-05T20:30:10.394Z,6.08
2022-11-05T20:32:47.352Z,6.06
2022-11-05T20:35:28.309Z,5.99
2022-11-05T20:38:00.636Z,5.95
2022-11-05T20:40:35.899Z,5.89
2022-11-05T20:43:11.906Z,5.91
2022-11-05T20:45:52.867Z,5.81
2022-11-05T20:48:30.245Z,5.80
2022-11-05T20:51:09.143Z,5.77
2022-11-05T20:53:41.679Z,5.80
2022-11-05T20:56:22.833Z,5.76
2022-11-05T20:59:02.295Z,5.81
2022-11-05T21:01:45.130Z,5.89
2022-11-05T21:04:16.304Z,5.73
2022-11-05T21:06:47.944Z,5.94
2022-11-05T21:09:28.527Z,5.79
2022-11-05T21:12:12.658Z,5.88
2022-11-05T21:14:52.256Z,5.82
2022-11-05T21:17:33.837Z,5.84
2022-11-05T21:20:09.337Z,5.81
2022-11-05T21:22:43.481Z,5.70
2022-11-05T21:25:18.339Z,5.77
2022-11-05T21:28:14.491Z,5.81
2022-11-05T21:30:47.644Z,5.70
2022-11-05T21:33:18.685Z,5.58
2022-11-05T21:35:50.906Z,5.81
2022-11-05T21:38:28.954Z,5.83
2022-11-05T21:41:10.074Z,5.91
2022-11-05T21:43:45.190Z,5.76
2022-11-05T21:46:22.595Z,5.83
2022-11-05T21:49:11.595Z,5.91
2022-11-05T21:52:04.897Z,5.90
2022-11-05T21:54:56.295Z,5.74
2022-11-05T21:57:54.349Z,5.78
2022-11-05T22:00:32.313Z,6.00
2022-11-05T22:03:14.947Z,6.03
2022-11-05T22:06:04.433Z,5.93
2022-11-05T22:08:40.400Z,5.88
2022-11-05T22:11:12.431Z,5.89
2022-11-05T22:13:45.895Z,5.93
2022-11-05T22:16:23.783Z,5.85
2022-11-05T22:18:54.212Z,5.99
2022-11-05T22:21:32.135Z,6.00
2022-11-05T22:24:04.437Z,5.93
2022-11-05T22:26:40.144Z,5.93
2022-11-05T22:29:16.267Z,6.00
2022-11-05T22:31:51.190Z,5.98
2022-11-05T22:34:35.260Z,6.00
2022-11-05T22:37:12.085Z,6.03
2022-11-05T22:39:47.239Z,5.96
2022-11-05T22:42:22.357Z,5.98
2022-11-05T22:44:59.284Z,5.84
2022-11-05T22:47:34.115Z,5.79
2022-11-05T22:50:06.425Z,5.90
2022-11-05T22:52:36.500Z,5.87
2022-11-05T22:55:11.893Z,5.81
2022-11-05T22:57:50.622Z,5.67
2022-11-05T23:00:36.875Z,5.85
2022-11-05T23:03:11.902Z,5.73
2022-11-05T23:05:43.612Z,5.77
2022-11-05T23:08:31.391Z,5.82
2022-11-05T23:11:22.060Z,5.73
2022-11-05T23:13:56.899Z,5.70
2022-11-05T23:16:45.469Z,5.69
2022-11-05T23:19:31.460Z,5.78
2022-11-05T23:22:29.688Z,5.63
2022-11-05T23:25:02.556Z,5.64
2022-11-05T23:27:38.401Z,5.71
2022-11-05T23:30:15.587Z,5.68
2022-11-05T23:32:59.834Z,5.52
2022-11-05T23:35:50.404Z,5.60
2022-11-05T23:38:34.997Z,5.38
2022-11-05T23:41:26.384Z,4.94
2022-11-05T23:44:20.124Z,5.24
2022-11-05T23:47:13.795Z,5.20
2022-11-05T23:49:47.080Z,4.94
2022-11-05T23:52:22.612Z,5.22
2022-11-05T23:54:54.992Z,5.24
2022-11-05T23:57:30.015Z,5.28
2022-11-05T23:59:59.943Z,5.17
